createdAt,value
2022-10-13T00:00:38.914Z,98.20
2022-10-13T00:03:05.690Z,98.20
2022-10-13T00:05:32.592Z,97.40
2022-10-13T00:07:59.681Z,97.30
2022-10-13T00:10:27.796Z,97.10
2022-10-13T00:12:54.451Z,96.80
2022-10-13T00:15:22.226Z,96.40
2022-10-13T00:17:48.924Z,96.70
2022-10-13T00:20:15.764Z,97.50
2022-10-13T00:22:42.432Z,97.50
2022-10-13T00:25:09.377Z,97.20
2022-10-13T00:27:36.049Z,96.70
2022-10-13T00:30:02.909Z,96.20
2022-10-13T00:32:29.752Z,97.00
2022-10-13T00:34:57.751Z,96.60
2022-10-13T00:37:24.991Z,97.30
2022-10-13T00:39:51.685Z,97.50
2022-10-13T00:42:23.331Z,97.90
2022-10-13T00:45:13.793Z,97.40
2022-10-13T00:47:43.466Z,97.70
2022-10-13T00:50:15.658Z,97.70
2022-10-13T00:52:46.358Z,97.40
2022-10-13T00:55:18.166Z,97.20
2022-10-13T00:57:48.301Z,97.60
2022-10-13T01:00:15.287Z,97.80
2022-10-13T01:02:42.273Z,97.70
2022-10-13T01:05:09.160Z,97.70
2022-10-13T01:07:36.239Z,97.30
2022-10-13T01:10:04.530Z,97.40
2022-10-13T01:12:41.613Z,97.50
2022-10-13T01:15:37.055Z,97.00
2022-10-13T01:18:20.589Z,96.80
2022-10-13T01:20:47.576Z,96.60
2022-10-13T01:23:34.010Z,96.70
2022-10-13T01:26:18.722Z,97.30
2022-10-13T01:29:02.335Z,97.50
2022-10-13T01:31:38.437Z,97.80
2022-10-13T01:34:11.226Z,97.60
2022-10-13T01:36:57.193Z,97.30
2022-10-13T01:39:44.487Z,96.70
2022-10-13T01:42:39.936Z,96.60
2022-10-13T01:45:17.313Z,96.60
2022-10-13T01:47:45.746Z,96.30
2022-10-13T01:50:14.545Z,96.70
2022-10-13T01:52:42.770Z,96.60
2022-10-13T01:55:12.435Z,96.80
2022-10-13T01:57:44.677Z,96.60
2022-10-13T02:00:15.103Z,96.00
2022-10-13T02:03:01.657Z,95.60
2022-10-13T02:05:57.574Z,96.20
2022-10-13T02:08:52.424Z,96.30
2022-10-13T02:11:21.701Z,97.10
2022-10-13T02:13:58.838Z,97.30
2022-10-13T02:16:33.806Z,97.40
2022-10-13T02:19:04.737Z,97.00
2022-10-13T02:21:32.677Z,96.50
2022-10-13T02:24:03.698Z,97.00
2022-10-13T02:26:32.269Z,96.70
2022-10-13T02:29:14.516Z,97.00
2022-10-13T02:31:42.431Z,97.00
2022-10-13T02:34:09.706Z,96.80
2022-10-13T02:36:38.107Z,96.50
2022-10-13T02:39:06.305Z,96.40
2022-10-13T02:41:33.137Z,96.30
2022-10-13T02:43:59.809Z,96.80
2022-10-13T02:46:34.192Z,96.90
2022-10-13T02:49:01.025Z,96.80
2022-10-13T02:51:28.809Z,97.10
2022-10-13T02:53:55.516Z,96.50
2022-10-13T02:56:22.180Z,96.80
2022-10-13T02:58:48.803Z,96.90
2022-10-13T03:01:16.437Z,96.80
2022-10-13T03:03:43.459Z,97.10
2022-10-13T03:06:10.316Z,97.30
2022-10-13T03:08:38.302Z,97.20
2022-10-13T03:11:05.144Z,97.60
2022-10-13T03:13:32.088Z,97.60
2022-10-13T03:16:06.876Z,97.70
2022-10-13T03:18:33.571Z,97.70
2022-10-13T03:21:02.342Z,97.90
2022-10-13T03:23:29.412Z,97.70
2022-10-13T03:25:56.577Z,97.80
2022-10-13T03:28:23.270Z,97.60
2022-10-13T03:30:51.184Z,98.00
2022-10-13T03:33:17.839Z,98.30
2022-10-13T03:35:44.488Z,98.30
2022-10-13T03:38:11.211Z,98.10
2022-10-13T03:40:38.887Z,98.00
2022-10-13T03:43:05.615Z,97.40
2022-10-13T03:45:32.363Z,97.10
2022-10-13T03:47:59.129Z,97.00
2022-10-13T03:50:26.290Z,97.20
2022-10-13T03:52:53.938Z,97.80
2022-10-13T03:55:20.590Z,97.80
2022-10-13T03:57:47.251Z,97.90
2022-10-13T04:00:14.909Z,97.90
2022-10-13T04:02:41.871Z,97.20
2022-10-13T04:05:09.191Z,97.60
2022-10-13T04:07:35.891Z,97.60
2022-10-13T04:10:11.374Z,97.60
2022-10-13T04:12:40.074Z,98.00
2022-10-13T04:15:07.441Z,98.10
2022-10-13T04:17:34.115Z,97.80
2022-10-13T04:20:00.769Z,98.10
2022-10-13T04:22:27.798Z,98.10
2022-10-13T04:24:54.435Z,97.70
2022-10-13T04:27:23.340Z,98.20
2022-10-13T04:29:50.066Z,97.90
2022-10-13T04:32:17.182Z,98.20
2022-10-13T04:34:44.520Z,98.00
2022-10-13T04:37:11.188Z,97.80
2022-10-13T04:39:37.980Z,97.70
2022-10-13T04:42:04.982Z,97.70
2022-10-13T04:44:32.044Z,98.10
2022-10-13T04:47:00.748Z,98.30
2022-10-13T04:49:27.434Z,98.30
2022-10-13T04:51:54.717Z,98.00
2022-10-13T04:54:21.472Z,98.20
2022-10-13T04:56:48.542Z,98.30
2022-10-13T04:59:15.744Z,98.30
2022-10-13T05:01:42.588Z,98.30
2022-10-13T05:04:13.360Z,97.80
2022-10-13T05:07:05.323Z,98.10
2022-10-13T05:09:28.800Z,98.30
2022-10-13T05:11:55.448Z,98.20
2022-10-13T05:14:23.301Z,98.30
2022-10-13T05:16:50.137Z,98.30
2022-10-13T05:19:16.881Z,98.30
2022-10-13T05:21:43.714Z,98.30
2022-10-13T05:24:13.531Z,98.30
2022-10-13T05:26:41.209Z,98.30
2022-10-13T05:29:07.897Z,98.30
2022-10-13T05:31:36.073Z,98.30
2022-10-13T05:34:02.954Z,98.30
2022-10-13T05:36:34.545Z,98.30
2022-10-13T05:39:03.687Z,98.30
2022-10-13T05:41:31.253Z,98.30
2022-10-13T05:44:07.856Z,98.30
2022-10-13T05:46:37.080Z,98.30
2022-10-13T05:49:04.231Z,98.30
2022-10-13T05:51:36.564Z,98.30
2022-10-13T05:54:24.386Z,98.30
2022-10-13T05:57:00.202Z,98.30
2022-10-13T05:59:32.599Z,98.30
2022-10-13T06:02:01.075Z,98.30
2022-10-13T06:04:35.962Z,98.20
2022-10-13T06:07:02.815Z,98.20
2022-10-13T06:09:34.921Z,98.10
2022-10-13T06:12:01.627Z,97.70
2022-10-13T06:14:28.298Z,97.90
2022-10-13T06:16:54.967Z,98.10
2022-10-13T06:19:21.697Z,98.30
2022-10-13T06:21:48.333Z,98.00
2022-10-13T06:24:15.032Z,97.90
2022-10-13T06:26:41.784Z,98.30
2022-10-13T06:29:08.499Z,98.00
2022-10-13T06:31:35.377Z,98.00
2022-10-13T06:34:02.708Z,97.90
2022-10-13T06:36:29.392Z,98.20
2022-10-13T06:38:56.149Z,97.90
2022-10-13T06:41:23.625Z,97.90
2022-10-13T06:43:50.441Z,97.80
2022-10-13T06:46:17.581Z,97.50
2022-10-13T06:48:44.283Z,97.20
2022-10-13T06:51:11.791Z,96.80
2022-10-13T06:53:38.513Z,96.80
2022-10-13T06:56:07.192Z,97.20
2022-10-13T06:58:37.748Z,97.30
2022-10-13T07:01:05.756Z,97.00
2022-10-13T07:03:32.935Z,97.30
2022-10-13T07:06:04.514Z,97.30
2022-10-13T07:08:31.975Z,97.70
2022-10-13T07:10:58.948Z,97.60
2022-10-13T07:13:26.029Z,98.20
2022-10-13T07:15:53.006Z,98.20
2022-10-13T07:18:19.845Z,98.20
2022-10-13T07:20:46.516Z,97.70
2022-10-13T07:23:13.246Z,97.40
2022-10-13T07:25:40.566Z,97.20
2022-10-13T07:28:08.770Z,96.70
2022-10-13T07:30:35.539Z,96.50
2022-10-13T07:33:02.834Z,96.50
2022-10-13T07:35:30.863Z,96.30
2022-10-13T07:37:58.376Z,96.30
2022-10-13T07:40:25.064Z,96.90
2022-10-13T07:42:51.724Z,97.50
2022-10-13T07:45:18.602Z,97.70
2022-10-13T07:47:45.274Z,97.90
2022-10-13T07:50:11.991Z,97.80
2022-10-13T07:52:39.031Z,97.80
2022-10-13T07:55:06.374Z,98.00
2022-10-13T07:57:33.349Z,97.80
2022-10-13T08:00:00.343Z,97.70
2022-10-13T08:02:27.160Z,97.30
2022-10-13T08:04:53.897Z,96.90
2022-10-13T08:07:20.963Z,96.60
2022-10-13T08:09:49.650Z,96.60
2022-10-13T08:12:16.930Z,96.10
2022-10-13T08:14:44.089Z,96.10
2022-10-13T08:17:12.912Z,96.20
2022-10-13T08:19:39.645Z,96.00
2022-10-13T08:22:09.618Z,95.90
2022-10-13T08:24:37.156Z,96.00
2022-10-13T08:27:04.111Z,95.70
2022-10-13T08:29:31.035Z,95.70
2022-10-13T08:31:57.770Z,95.10
2022-10-13T08:34:25.139Z,94.70
2022-10-13T08:36:54.306Z,94.90
2022-10-13T08:39:23.600Z,94.80
2022-10-13T08:41:51.164Z,94.50
2022-10-13T08:47:23.634Z,93.90
2022-10-13T08:49:50.633Z,93.90
2022-10-13T08:52:21.908Z,94.00
2022-10-13T08:54:50.245Z,93.50
2022-10-13T08:57:18.169Z,93.40
2022-10-13T08:59:45.543Z,93.40
2022-10-13T09:02:15.002Z,93.30
2022-10-13T09:04:48.616Z,93.70
2022-10-13T09:07:20.608Z,93.60
2022-10-13T09:09:51.863Z,92.80
2022-10-13T09:12:24.108Z,93.30
2022-10-13T09:15:09.794Z,92.40
2022-10-13T09:17:38.454Z,92.90
2022-10-13T09:20:20.905Z,93.10
2022-10-13T09:23:19.440Z,93.20
2022-10-13T09:25:49.873Z,94.20
2022-10-13T09:28:19.651Z,94.60
2022-10-13T09:30:47.477Z,94.70
2022-10-13T09:33:23.221Z,94.10
2022-10-13T09:36:06.421Z,93.80
2022-10-13T09:38:33.875Z,93.20
2022-10-13T09:41:05.497Z,93.80
2022-10-13T09:43:47.646Z,93.80
2022-10-13T09:46:36.651Z,93.60
2022-10-13T09:49:21.505Z,92.90
2022-10-13T09:51:48.801Z,92.60
2022-10-13T09:54:38.937Z,93.40
2022-10-13T09:57:31.221Z,93.80
2022-10-13T10:00:06.151Z,94.10
2022-10-13T10:03:03.114Z,94.00
2022-10-13T10:05:42.019Z,94.80
2022-10-13T10:08:33.883Z,95.50
2022-10-13T10:11:12.208Z,95.50
2022-10-13T10:13:38.980Z,94.90
2022-10-13T10:16:29.860Z,94.40
2022-10-13T10:19:07.566Z,93.90
2022-10-13T10:21:40.249Z,94.50
2022-10-13T10:24:30.913Z,94.40
2022-10-13T10:27:06.576Z,93.90
2022-10-13T10:29:59.104Z,93.50
2022-10-13T10:32:48.942Z,94.00
2022-10-13T10:35:36.573Z,94.00
2022-10-13T10:38:48.478Z,93.90
2022-10-13T10:41:40.768Z,94.00
2022-10-13T10:44:11.461Z,93.50
2022-10-13T10:46:50.479Z,93.90
2022-10-13T10:49:19.856Z,94.10
2022-10-13T10:51:47.439Z,94.80
2022-10-13T10:54:14.060Z,95.00
2022-10-13T10:56:49.151Z,95.70
2022-10-13T10:59:31.001Z,95.40
2022-10-13T11:02:29.535Z,95.40
2022-10-13T11:04:59.064Z,95.00
2022-10-13T11:07:28.655Z,94.80
2022-10-13T11:09:57.118Z,94.30
2022-10-13T11:12:26.120Z,94.00
2022-10-13T11:15:13.894Z,93.70
2022-10-13T11:17:42.091Z,93.60
2022-10-13T11:20:20.447Z,93.40
2022-10-13T11:22:59.409Z,93.50
2022-10-13T11:25:45.488Z,93.90
2022-10-13T11:28:21.261Z,94.00
2022-10-13T11:30:49.754Z,93.90
2022-10-13T11:33:48.591Z,93.90
2022-10-13T11:36:35.264Z,93.60
2022-10-13T11:39:27.982Z,93.70
2022-10-13T11:42:19.860Z,94.30
2022-10-13T11:44:55.147Z,94.30
2022-10-13T11:47:49.273Z,94.00
2022-10-13T11:50:29.884Z,93.90
2022-10-13T11:53:22.786Z,93.80
2022-10-13T11:55:53.563Z,92.80
2022-10-13T11:58:21.647Z,92.40
2022-10-13T12:00:58.607Z,92.20
2022-10-13T12:03:37.729Z,91.60
2022-10-13T12:06:20.558Z,90.40
2022-10-13T12:08:49.815Z,89.10
2022-10-13T12:11:26.372Z,88.40
2022-10-13T12:13:53.686Z,88.30
2022-10-13T12:16:21.333Z,87.60
2022-10-13T12:18:51.287Z,87.40
2022-10-13T12:21:21.105Z,87.60
2022-10-13T12:23:49.945Z,88.50
2022-10-13T12:26:19.303Z,88.70
2022-10-13T12:29:01.069Z,88.90
2022-10-13T12:31:49.449Z,88.90
2022-10-13T12:34:35.942Z,88.70
2022-10-13T12:37:15.007Z,87.80
2022-10-13T12:39:41.886Z,87.10
2022-10-13T12:42:13.002Z,86.80
2022-10-13T12:44:40.171Z,86.80
2022-10-13T12:47:46.195Z,87.20
2022-10-13T12:50:27.990Z,87.50
2022-10-13T12:53:26.418Z,87.60
2022-10-13T12:56:00.537Z,87.90
2022-10-13T12:58:30.885Z,87.80
2022-10-13T13:01:09.490Z,87.60
2022-10-13T13:03:37.454Z,87.70
2022-10-13T13:06:17.591Z,87.30
2022-10-13T13:08:44.524Z,87.80
2022-10-13T13:11:24.774Z,88.20
2022-10-13T13:14:12.674Z,87.80
2022-10-13T13:16:39.672Z,87.90
2022-10-13T13:19:23.469Z,87.60
2022-10-13T13:21:50.379Z,87.90
2022-10-13T13:24:28.847Z,87.70
2022-10-13T13:27:19.288Z,88.10
2022-10-13T13:29:46.613Z,88.80
2022-10-13T13:32:20.565Z,89.40
2022-10-13T13:34:48.233Z,89.30
2022-10-13T13:37:34.335Z,89.40
2022-10-13T13:40:01.539Z,89.20
2022-10-13T13:42:28.958Z,89.60
2022-10-13T13:44:56.235Z,89.70
2022-10-13T13:47:26.049Z,89.50
2022-10-13T13:49:56.033Z,89.80
2022-10-13T13:52:24.153Z,90.00
2022-10-13T13:54:51.222Z,90.20
2022-10-13T13:57:19.422Z,90.90
2022-10-13T13:59:46.315Z,91.30
2022-10-13T14:02:16.453Z,91.30
2022-10-13T14:04:43.366Z,91.30
2022-10-13T14:07:10.580Z,91.70
2022-10-13T14:09:37.508Z,91.50
2022-10-13T14:12:04.982Z,91.30
2022-10-13T14:14:33.052Z,91.00
2022-10-13T14:17:01.054Z,91.30
2022-10-13T14:19:27.790Z,91.80
2022-10-13T14:21:54.478Z,92.30
2022-10-13T14:24:21.552Z,91.70
2022-10-13T14:26:48.241Z,91.70
2022-10-13T14:29:15.964Z,91.60
2022-10-13T14:31:42.975Z,92.50
2022-10-13T14:34:10.094Z,92.40
2022-10-13T14:36:38.502Z,93.30
2022-10-13T14:39:05.403Z,92.50
2022-10-13T14:41:33.027Z,92.50
2022-10-13T14:44:00.025Z,93.10
2022-10-13T14:46:26.754Z,93.00
2022-10-13T14:48:56.064Z,92.50
2022-10-13T14:51:22.836Z,92.70
2022-10-13T14:53:49.517Z,92.80
2022-10-13T14:56:21.730Z,92.40
2022-10-13T14:59:04.612Z,91.60
2022-10-13T15:01:36.751Z,91.20
2022-10-13T15:04:03.774Z,91.30
2022-10-13T15:06:31.462Z,91.20
2022-10-13T15:08:58.892Z,91.40
2022-10-13T15:11:26.836Z,91.50
2022-10-13T15:13:53.791Z,91.00
2022-10-13T15:16:29.539Z,92.10
2022-10-13T15:18:56.624Z,92.50
2022-10-13T15:21:23.723Z,93.20
2022-10-13T15:23:50.902Z,93.70
2022-10-13T15:26:19.811Z,93.80
2022-10-13T15:28:48.959Z,93.80
2022-10-13T15:31:17.242Z,93.40
2022-10-13T15:33:54.187Z,93.60
2022-10-13T15:36:22.095Z,93.10
2022-10-13T15:38:48.829Z,94.00
2022-10-13T15:41:16.249Z,93.30
2022-10-13T15:43:43.750Z,93.10
2022-10-13T15:46:21.776Z,93.30
2022-10-13T15:48:53.382Z,93.50
2022-10-13T15:51:22.839Z,93.80
2022-10-13T15:53:50.223Z,93.10
2022-10-13T15:56:17.210Z,93.10
2022-10-13T15:58:44.176Z,93.30
2022-10-13T16:01:12.724Z,93.70
2022-10-13T16:03:39.994Z,93.70
2022-10-13T16:06:10.078Z,93.80
2022-10-13T16:08:42.462Z,94.00
2022-10-13T16:11:11.729Z,94.80
2022-10-13T16:13:39.835Z,94.60
2022-10-13T16:16:07.547Z,94.70
2022-10-13T16:18:37.003Z,95.00
2022-10-13T16:21:17.294Z,95.40
2022-10-13T16:23:46.650Z,95.70
2022-10-13T16:26:13.729Z,96.00
2022-10-13T16:28:40.654Z,96.10
2022-10-13T16:31:13.507Z,96.30
2022-10-13T16:33:44.265Z,96.40
2022-10-13T16:36:13.769Z,96.20
2022-10-13T16:38:41.537Z,95.90
2022-10-13T16:41:12.836Z,95.50
2022-10-13T16:43:39.875Z,95.60
2022-10-13T16:46:08.245Z,96.20
2022-10-13T16:48:35.001Z,96.50
2022-10-13T16:51:06.826Z,96.20
2022-10-13T16:53:34.836Z,96.00
2022-10-13T16:56:03.568Z,96.60
2022-10-13T16:58:30.310Z,96.70
2022-10-13T17:01:09.697Z,97.00
2022-10-13T17:03:37.915Z,96.20
2022-10-13T17:06:05.861Z,96.30
2022-10-13T17:08:38.606Z,96.90
2022-10-13T17:11:06.010Z,97.10
2022-10-13T17:13:35.564Z,96.50
2022-10-13T17:16:03.149Z,96.90
2022-10-13T17:18:29.860Z,97.10
2022-10-13T17:20:59.394Z,97.60
2022-10-13T17:23:27.308Z,98.00
2022-10-13T17:25:55.556Z,98.10
2022-10-13T17:28:22.849Z,97.90
2022-10-13T17:31:09.447Z,97.80
2022-10-13T17:33:37.493Z,97.30
2022-10-13T17:36:20.418Z,97.20
2022-10-13T17:38:50.835Z,97.30
2022-10-13T17:41:18.938Z,97.60
2022-10-13T17:43:49.617Z,97.80
2022-10-13T17:46:39.140Z,98.20
2022-10-13T17:49:11.805Z,98.10
2022-10-13T17:51:40.033Z,98.10
2022-10-13T17:54:11.471Z,97.90
2022-10-13T17:56:41.342Z,97.50
2022-10-13T17:59:09.734Z,97.30
2022-10-13T18:01:36.991Z,97.10
2022-10-13T18:04:11.739Z,97.10
2022-10-13T18:06:41.061Z,97.50
2022-10-13T18:09:13.964Z,98.10
2022-10-13T18:11:48.524Z,98.30
2022-10-13T18:14:17.633Z,98.20
2022-10-13T18:16:44.763Z,97.90
2022-10-13T18:19:13.289Z,98.20
2022-10-13T18:21:40.130Z,98.10
2022-10-13T18:24:07.265Z,97.70
2022-10-13T18:26:37.049Z,98.10
2022-10-13T18:29:05.990Z,98.30
2022-10-13T18:31:35.493Z,98.30
2022-10-13T18:34:04.934Z,98.20
2022-10-13T18:36:34.942Z,98.00
2022-10-13T18:39:08.653Z,97.90
2022-10-13T18:41:37.314Z,98.10
2022-10-13T18:44:04.577Z,98.00
2022-10-13T18:46:32.568Z,97.70
2022-10-13T18:48:59.256Z,98.10
2022-10-13T18:51:26.371Z,98.00
2022-10-13T18:53:53.024Z,97.70
2022-10-13T18:56:24.001Z,98.30
2022-10-13T18:58:55.665Z,98.30
2022-10-13T19:01:26.816Z,98.30
2022-10-13T19:03:54.131Z,98.00
2022-10-13T19:06:26.818Z,98.10
2022-10-13T19:09:00.723Z,98.30
2022-10-13T19:11:29.282Z,98.30
2022-10-13T19:13:57.675Z,98.30
2022-10-13T19:16:26.459Z,98.30
2022-10-13T19:18:53.320Z,98.30
2022-10-13T19:21:21.617Z,98.30
2022-10-13T19:23:48.799Z,98.30
2022-10-13T19:26:23.656Z,98.30
2022-10-13T19:28:54.462Z,98.30
2022-10-13T19:31:23.057Z,98.30
2022-10-13T19:33:52.386Z,98.30
2022-10-13T19:36:25.146Z,98.30
2022-10-13T19:38:54.209Z,98.30
2022-10-13T19:41:21.211Z,98.30
2022-10-13T19:43:48.003Z,98.30
2022-10-13T19:46:15.130Z,98.30
2022-10-13T19:48:41.931Z,98.30
2022-10-13T19:51:09.559Z,98.30
2022-10-13T19:53:39.882Z,98.30
2022-10-13T19:56:07.247Z,98.30
2022-10-13T19:58:34.856Z,98.30
2022-10-13T20:01:04.422Z,98.30
2022-10-13T20:03:31.530Z,98.30
2022-10-13T20:05:58.408Z,98.30
2022-10-13T20:08:25.139Z,98.30
2022-10-13T20:10:51.846Z,98.30
2022-10-13T20:13:18.585Z,98.30
2022-10-13T20:15:50.915Z,98.30
2022-10-13T20:21:05.187Z,98.30
2022-10-13T20:23:38.163Z,98.30
2022-10-13T20:26:07.125Z,98.30
2022-10-13T20:28:40.514Z,98.30
2022-10-13T20:31:12.662Z,98.30
2022-10-13T20:33:40.224Z,98.30
2022-10-13T20:36:09.415Z,98.30
2022-10-13T20:38:37.594Z,98.30
2022-10-13T20:41:05.292Z,98.30
2022-10-13T20:43:31.984Z,98.30
2022-10-13T20:46:04.360Z,98.30
2022-10-13T20:49:05.254Z,98.30
2022-10-13T20:51:24.276Z,98.30
2022-10-13T20:53:51.889Z,98.30
2022-10-13T20:56:24.709Z,98.30
2022-10-13T20:58:52.674Z,98.30
2022-10-13T21:01:21.171Z,98.30
2022-10-13T21:03:54.681Z,98.30
2022-10-13T21:06:22.977Z,98.30
2022-10-13T21:08:49.804Z,98.30
2022-10-13T21:11:19.981Z,98.30
2022-10-13T21:13:47.230Z,98.30
2022-10-13T21:16:17.154Z,98.30
2022-10-13T21:18:47.946Z,98.30
2022-10-13T21:21:17.557Z,98.30
2022-10-13T21:23:45.654Z,98.30
2022-10-13T21:26:18.972Z,98.30
2022-10-13T21:28:48.227Z,98.30
2022-10-13T21:31:16.607Z,98.30
2022-10-13T21:33:44.030Z,98.30
2022-10-13T21:36:15.475Z,98.30
2022-10-13T21:38:43.503Z,98.30
2022-10-13T21:41:11.993Z,98.30
2022-10-13T21:43:38.941Z,98.30
2022-10-13T21:46:12.707Z,98.30
2022-10-13T21:48:43.335Z,98.30
2022-10-13T21:51:18.384Z,98.30
2022-10-13T21:53:50.451Z,98.30
2022-10-13T21:56:17.497Z,98.30
2022-10-13T21:58:44.587Z,98.30
2022-10-13T22:01:11.716Z,98.30
2022-10-13T22:03:39.078Z,98.30
2022-10-13T22:06:18.277Z,98.30
2022-10-13T22:08:47.609Z,98.30
2022-10-13T22:11:19.528Z,98.30
2022-10-13T22:13:46.552Z,98.30
2022-10-13T22:16:23.371Z,98.30
2022-10-13T22:18:54.890Z,98.30
2022-10-13T22:21:27.217Z,98.30
2022-10-13T22:24:00.829Z,98.30
2022-10-13T22:26:30.177Z,98.30
2022-10-13T22:28:59.029Z,98.30
2022-10-13T22:31:25.964Z,98.30
2022-10-13T22:33:53.678Z,98.30
2022-10-13T22:36:23.489Z,98.30
2022-10-13T22:38:52.114Z,98.30
2022-10-13T22:41:19.772Z,98.30
2022-10-13T22:43:50.839Z,98.30
2022-10-13T22:46:19.703Z,98.30
2022-10-13T22:48:46.875Z,98.30
2022-10-13T22:51:17.005Z,98.30
2022-10-13T22:53:44.495Z,98.30
2022-10-13T22:56:19.949Z,98.30
2022-10-13T22:58:51.742Z,98.30
2022-10-13T23:01:18.889Z,98.30
2022-10-13T23:03:50.422Z,98.30
2022-10-13T23:06:19.213Z,98.30
2022-10-13T23:08:45.981Z,98.30
2022-10-13T23:11:13.873Z,98.30
2022-10-13T23:13:40.538Z,98.30
2022-10-13T23:16:13.863Z,98.30
2022-10-13T23:18:42.567Z,98.30
2022-10-13T23:21:22.109Z,98.30
2022-10-13T23:23:55.133Z,98.30
2022-10-13T23:26:22.967Z,98.30
2022-10-13T23:28:49.803Z,98.30
2022-10-13T23:31:17.398Z,98.30
2022-10-13T23:33:44.844Z,98.30
2022-10-13T23:36:19.150Z,98.30
2022-10-13T23:38:53.675Z,98.30
2022-10-13T23:41:20.338Z,98.30
2022-10-13T23:43:46.990Z,98.30
2022-10-13T23:46:13.773Z,98.30
2022-10-13T23:48:40.571Z,98.30
2022-10-13T23:51:13.307Z,98.30
2022-10-13T23:53:40.564Z,98.30
2022-10-13T23:56:08.763Z,98.30
2022-10-13T23:58:37.042Z,98.30
